Time;durP1;ratioP1;P1;durP2;ratioP2;P2;SDS_P1;SDS_P2;PMS_P1;PMS_P2;Temp;Humidity;BMP_temperature;BMP_pressure;BME280_temperature;BME280_humidity;BME280_pressure;Samples;Min_cycle;Max_cycle;Signal;HPM_P1;HPM_P2
2022/04/20 00:00:23;;;;;;;4.60;3.20;;;;;;;8.40;100.00;101433.19;5344839;27;20136;-75
2022/04/20 00:02:54;;;;;;;6.53;3.05;;;;;;;8.34;100.00;101442.44;5352315;27;20337;-75
2022/04/20 00:05:26;;;;;;;2.97;2.67;;;;;;;8.36;100.00;101442.31;5349862;27;20692;-75
2022/04/20 00:07:57;;;;;;;3.80;2.80;;;;;;;8.38;100.00;101441.25;5355330;27;20167;-75
2022/04/20 00:10:30;;;;;;;5.45;2.88;;;;;;;8.35;100.00;101446.78;5350972;27;20819;-75
2022/04/20 00:13:01;;;;;;;3.88;2.65;;;;;;;8.18;100.00;101440.06;5346699;27;20028;-75
2022/04/20 00:15:32;;;;;;;3.90;2.97;;;;;;;8.16;100.00;101439.31;5352175;27;21253;-75
2022/04/20 00:18:04;;;;;;;3.92;2.97;;;;;;;8.11;100.00;101436.16;5346431;27;20020;-75
2022/04/20 00:20:35;;;;;;;6.32;2.78;;;;;;;8.16;100.00;101434.00;5354008;27;20039;-75
2022/04/20 00:23:06;;;;;;;6.63;2.97;;;;;;;8.15;100.00;101437.63;5347364;27;20043;-76
2022/04/20 00:25:38;;;;;;;7.57;2.70;;;;;;;8.14;100.00;101455.38;5354556;27;20027;-75
2022/04/20 00:28:09;;;;;;;3.92;2.95;;;;;;;8.03;100.00;101450.00;5344931;27;20096;-75
2022/04/20 00:30:40;;;;;;;8.07;3.03;;;;;;;8.03;100.00;101454.44;5345381;27;20406;-75
2022/04/20 00:33:11;;;;;;;3.83;2.90;;;;;;;7.95;100.00;101450.53;5344890;27;20027;-75
2022/04/20 00:35:43;;;;;;;3.28;2.97;;;;;;;7.93;100.00;101455.13;5350009;27;20079;-75
2022/04/20 00:38:16;;;;;;;5.70;3.03;;;;;;;7.91;100.00;101451.72;5350724;27;20102;-75
2022/04/20 00:40:48;;;;;;;3.90;2.78;;;;;;;7.87;100.00;101460.03;5346134;27;20045;-75
2022/04/20 00:43:19;;;;;;;5.88;3.20;;;;;;;7.88;100.00;101457.25;5350236;27;20024;-76
2022/04/20 00:45:52;;;;;;;7.38;3.08;;;;;;;7.85;100.00;101452.16;5354267;27;20118;-75
2022/04/20 00:48:24;;;;;;;4.70;2.85;;;;;;;7.79;100.00;101463.22;5345687;27;20040;-75
2022/04/20 00:50:55;;;;;;;4.07;2.97;;;;;;;7.80;100.00;101461.41;5345801;27;20081;-75
2022/04/20 00:53:26;;;;;;;5.47;2.85;;;;;;;7.76;100.00;101455.47;5349770;27;20015;-75
2022/04/20 00:55:57;;;;;;;5.40;3.20;;;;;;;7.69;100.00;101464.84;5353533;27;20104;-75
2022/04/20 00:58:29;;;;;;;6.10;3.00;;;;;;;7.59;100.00;101464.66;5349551;27;42269;-75
2022/04/20 01:01:01;;;;;;;4.60;3.05;;;;;;;7.60;100.00;101466.34;5353760;27;20039;-75
2022/04/20 01:03:33;;;;;;;4.40;3.10;;;;;;;7.42;100.00;101463.16;5348524;27;20370;-75
2022/04/20 01:06:05;;;;;;;5.32;3.00;;;;;;;7.51;100.00;101467.00;5345981;27;20116;-75
2022/04/20 01:08:37;;;;;;;4.72;3.47;;;;;;;7.37;100.00;101455.50;5346144;27;20024;-75
2022/04/20 01:11:08;;;;;;;4.18;3.22;;;;;;;7.22;100.00;101455.72;5345384;27;20046;-75
2022/04/20 01:13:39;;;;;;;3.20;2.90;;;;;;;7.21;100.00;101459.34;5346774;27;20099;-75
2022/04/20 01:16:11;;;;;;;5.05;2.67;;;;;;;7.21;100.00;101465.50;5350182;27;20023;-75
2022/04/20 01:18:45;;;;;;;6.75;3.85;;;;;;;7.14;100.00;101462.41;5350287;27;20047;-75
2022/04/20 01:21:16;;;;;;;6.32;3.28;;;;;;;7.12;100.00;101450.22;5344497;27;20067;-76
2022/04/20 01:23:48;;;;;;;7.22;3.33;;;;;;;7.07;100.00;101466.44;5345424;27;20111;-75
2022/04/20 01:26:20;;;;;;;4.15;3.10;;;;;;;7.07;100.00;101465.59;5352766;27;20024;-75
2022/04/20 01:28:53;;;;;;;4.28;3.70;;;;;;;6.94;100.00;101450.53;5348454;27;20035;-75
2022/04/20 01:31:24;;;;;;;5.00;3.30;;;;;;;6.93;100.00;101456.78;5344704;27;20552;-75
2022/04/20 01:33:56;;;;;;;5.15;3.28;;;;;;;7.11;100.00;101464.44;5346323;27;20072;-75
2022/04/20 01:36:27;;;;;;;4.45;3.25;;;;;;;6.96;100.00;101471.59;5346375;27;40160;-75
2022/04/20 01:38:58;;;;;;;6.97;3.92;;;;;;;6.90;100.00;101472.03;5353410;27;20050;-75
2022/04/20 01:41:29;;;;;;;5.97;3.85;;;;;;;6.85;100.00;101471.50;5344453;27;20039;-75
2022/04/20 01:44:01;;;;;;;5.97;3.53;;;;;;;6.77;100.00;101478.16;5350031;27;20051;-75
2022/04/20 01:46:32;;;;;;;4.40;3.88;;;;;;;6.70;100.00;101462.78;5345330;27;20036;-75
2022/04/20 01:49:03;;;;;;;5.78;4.38;;;;;;;6.67;100.00;101465.63;5346865;27;20027;-75
2022/04/20 01:51:46;;;;;;;7.90;3.88;;;;;;;6.65;100.00;101465.72;5350547;27;20379;-75
2022/04/20 01:54:19;;;;;;;5.00;3.90;;;;;;;6.51;100.00;101460.50;5348794;27;20511;-75
2022/04/20 01:56:51;;;;;;;8.20;4.10;;;;;;;6.51;100.00;101466.63;5342039;27;20020;-75
2022/04/20 01:59:23;;;;;;;4.65;3.67;;;;;;;6.43;100.00;101460.97;5348313;27;20023;-75
2022/04/20 02:04:44;;;;;;;5.60;3.70;;;;;;;6.50;100.00;101464.09;5342456;27;20032;-75
2022/04/20 02:07:15;;;;;;;5.65;4.60;;;;;;;6.30;100.00;101468.03;5346651;27;20087;-75
2022/04/20 02:09:47;;;;;;;8.90;4.00;;;;;;;6.38;100.00;101471.03;5348721;27;20088;-75
2022/04/20 02:12:18;;;;;;;4.50;3.83;;;;;;;6.27;100.00;101465.59;5341275;27;20028;-75
2022/04/20 02:14:49;;;;;;;6.18;4.18;;;;;;;6.16;100.00;101471.59;5347992;27;21820;-74
2022/04/20 02:17:21;;;;;;;6.82;3.95;;;;;;;6.15;100.00;101470.72;5344564;27;20072;-75
2022/04/20 02:19:58;;;;;;;4.70;3.80;;;;;;;6.12;100.00;101467.41;5352305;27;20063;-75
2022/04/20 02:22:29;;;;;;;5.38;4.57;;;;;;;6.07;100.00;101462.44;5347257;27;20092;-75
2022/04/20 02:25:00;;;;;;;4.35;3.72;;;;;;;5.96;100.00;101464.88;5347582;27;20470;-74
2022/04/20 02:27:32;;;;;;;5.15;4.10;;;;;;;5.97;100.00;101467.44;5348518;27;20494;-74
2022/04/20 02:30:05;;;;;;;5.93;4.03;;;;;;;5.90;100.00;101454.66;5348268;27;20393;-75
2022/04/20 02:32:36;;;;;;;5.18;4.20;;;;;;;5.80;100.00;101459.69;5346211;27;20035;-75
2022/04/20 02:35:08;;;;;;;6.55;3.90;;;;;;;5.75;100.00;101457.34;5348693;27;20034;-75
2022/04/20 02:37:39;;;;;;;5.60;4.65;;;;;;;5.76;100.00;101461.66;5349365;27;20068;-75
2022/04/20 02:40:11;;;;;;;4.35;3.70;;;;;;;5.91;100.00;101454.56;5349172;27;20461;-74
2022/04/20 02:42:43;;;;;;;9.18;4.32;;;;;;;5.79;100.00;101458.84;5347221;27;20107;-75
2022/04/20 02:45:16;;;;;;;5.88;4.28;;;;;;;5.78;100.00;101451.81;5351648;27;20041;-75
2022/04/20 02:47:47;;;;;;;4.95;3.95;;;;;;;5.74;100.00;101471.50;5350802;27;20446;-75
2022/04/20 02:50:21;;;;;;;5.50;4.18;;;;;;;5.78;100.00;101470.38;5348005;27;20020;-75
2022/04/20 02:52:52;;;;;;;7.13;4.47;;;;;;;5.73;100.00;101467.16;5344178;27;20112;-75
2022/04/20 02:55:24;;;;;;;8.52;4.68;;;;;;;5.79;100.00;101473.88;5345584;27;20130;-75
2022/04/20 02:57:56;;;;;;;8.43;4.50;;;;;;;5.71;100.00;101474.34;5350642;27;20030;-75
2022/04/20 03:00:27;;;;;;;6.05;4.40;;;;;;;5.73;100.00;101480.38;5348285;27;20531;-74
2022/04/20 03:02:58;;;;;;;4.43;3.95;;;;;;;5.72;100.00;101473.41;5352395;27;20019;-74
2022/04/20 03:05:30;;;;;;;6.40;4.20;;;;;;;5.71;100.00;101473.50;5350932;27;20122;-74
2022/04/20 03:08:01;;;;;;;7.00;4.63;;;;;;;5.76;100.00;101480.19;5349752;27;20034;-74
2022/04/20 03:10:32;;;;;;;9.85;4.05;;;;;;;5.77;100.00;101479.28;5348254;27;20030;-75
2022/04/20 03:13:04;;;;;;;5.47;4.40;;;;;;;5.75;100.00;101482.94;5348774;27;20028;-74
2022/04/20 03:15:35;;;;;;;9.00;4.30;;;;;;;5.68;100.00;101479.84;5349484;27;20065;-74
2022/04/20 03:18:06;;;;;;;5.85;4.22;;;;;;;5.69;100.00;101477.06;5346957;27;20027;-74
2022/04/20 03:20:38;;;;;;;5.22;4.22;;;;;;;5.63;100.00;101474.81;5349297;27;20076;-74
2022/04/20 03:23:10;;;;;;;5.63;4.40;;;;;;;5.65;100.00;101478.22;5348049;27;20076;-74
2022/04/20 03:25:41;;;;;;;6.65;4.40;;;;;;;5.60;100.00;101482.94;5347514;27;20019;-75
2022/04/20 03:28:12;;;;;;;5.85;4.40;;;;;;;5.58;100.00;101489.28;5348282;27;20027;-75
2022/04/20 03:30:43;;;;;;;5.80;4.43;;;;;;;5.56;100.00;101485.88;5345837;27;20126;-74
2022/04/20 03:33:15;;;;;;;6.70;4.20;;;;;;;5.53;100.00;101492.22;5341543;27;20016;-75
2022/04/20 03:35:46;;;;;;;6.47;4.53;;;;;;;5.56;100.00;101494.69;5351565;27;20019;-74
2022/04/20 03:38:18;;;;;;;6.45;4.57;;;;;;;5.57;100.00;101498.16;5350463;27;20034;-74
2022/04/20 03:40:49;;;;;;;4.95;4.43;;;;;;;5.56;100.00;101492.03;5348814;27;20119;-75
2022/04/20 03:43:20;;;;;;;7.45;4.13;;;;;;;5.60;100.00;101490.88;5347375;27;20019;-75
2022/04/20 03:45:52;;;;;;;6.85;4.50;;;;;;;5.57;100.00;101490.22;5350479;27;20024;-74
2022/04/20 03:48:23;;;;;;;8.07;4.50;;;;;;;5.56;100.00;101502.63;5345381;27;20032;-75
2022/04/20 03:50:54;;;;;;;5.63;4.47;;;;;;;5.46;100.00;101494.38;5345721;27;20027;-75
2022/04/20 03:53:26;;;;;;;7.00;4.47;;;;;;;5.48;100.00;101499.56;5343760;27;20061;-75
2022/04/20 03:55:57;;;;;;;7.90;4.55;;;;;;;5.42;100.00;101498.16;5341140;27;20642;-75
2022/04/20 03:58:28;;;;;;;6.25;4.22;;;;;;;5.39;100.00;101494.84;5349537;27;20039;-75
2022/04/20 04:01:01;;;;;;;6.05;4.57;;;;;;;5.37;100.00;101499.41;5347539;27;20138;-75
2022/04/20 04:03:34;;;;;;;6.95;4.20;;;;;;;5.35;100.00;101502.13;5344723;27;20047;-76
2022/04/20 04:06:06;;;;;;;6.50;4.10;;;;;;;5.38;100.00;101504.59;5341926;27;20015;-75
2022/04/20 04:08:38;;;;;;;7.93;5.25;;;;;;;5.35;100.00;101509.19;5348479;27;20519;-76
2022/04/20 04:11:09;;;;;;;6.13;4.30;;;;;;;5.40;100.00;101502.69;5345457;27;20532;-76
2022/04/20 04:13:40;;;;;;;7.30;4.35;;;;;;;5.35;100.00;101509.19;5349618;27;20129;-76
2022/04/20 04:16:11;;;;;;;5.18;4.32;;;;;;;5.40;100.00;101507.13;5350046;27;20056;-76
2022/04/20 04:18:43;;;;;;;7.30;4.32;;;;;;;5.37;100.00;101517.91;5346269;27;20042;-76
2022/04/20 04:21:14;;;;;;;6.22;4.10;;;;;;;5.34;100.00;101518.94;5365506;27;20032;-76
2022/04/20 04:23:45;;;;;;;8.75;4.38;;;;;;;5.37;100.00;101516.09;5345669;27;20032;-76
2022/04/20 04:26:16;;;;;;;6.05;4.30;;;;;;;5.28;100.00;101517.50;5349484;27;20027;-76
2022/04/20 04:28:48;;;;;;;7.78;4.78;;;;;;;5.23;100.00;101524.03;5348198;27;20035;-76
2022/04/20 04:31:19;;;;;;;6.53;4.80;;;;;;;5.22;100.00;101522.31;5344246;27;20114;-76
2022/04/20 04:33:50;;;;;;;6.97;4.55;;;;;;;5.15;100.00;101521.81;5345531;27;20042;-76
2022/04/20 04:36:22;;;;;;;5.65;4.40;;;;;;;5.19;100.00;101531.28;5345651;27;20072;-76
2022/04/20 04:38:54;;;;;;;5.97;5.05;;;;;;;5.14;100.00;101532.47;5348116;27;20027;-76
2022/04/20 04:41:25;;;;;;;7.32;4.80;;;;;;;5.10;100.00;101535.34;5346703;27;20108;-76
2022/04/20 04:43:57;;;;;;;7.63;4.93;;;;;;;5.06;100.00;101541.72;5343312;27;20019;-75
2022/04/20 04:49:18;;;;;;;8.35;4.68;;;;;;;5.09;100.00;101541.53;5351899;27;21172;-76
2022/04/20 04:51:49;;;;;;;7.50;4.72;;;;;;;5.06;100.00;101547.00;5347925;27;20638;-77
2022/04/20 04:54:20;;;;;;;8.55;5.10;;;;;;;4.99;100.00;101548.31;5346896;27;20019;-76
2022/04/20 04:56:52;;;;;;;6.53;5.03;;;;;;;4.96;100.00;101552.94;5349759;27;20032;-76
2022/04/20 04:59:23;;;;;;;6.55;5.07;;;;;;;4.99;100.00;101558.03;5349480;27;20798;-76
2022/04/20 05:01:55;;;;;;;6.85;4.78;;;;;;;5.00;100.00;101557.97;5343123;27;20078;-74
2022/04/20 05:04:26;;;;;;;6.20;4.80;;;;;;;5.08;100.00;101555.72;5348757;27;20026;-75
2022/04/20 05:06:58;;;;;;;5.95;5.05;;;;;;;5.10;100.00;101556.50;5346347;27;20028;-74
2022/04/20 05:09:29;;;;;;;6.95;5.22;;;;;;;5.14;100.00;101554.50;5346637;27;20462;-74
2022/04/20 05:12:01;;;;;;;6.32;5.18;;;;;;;5.23;100.00;101553.97;5342322;27;20490;-75
2022/04/20 05:14:35;;;;;;;8.45;5.28;;;;;;;5.37;100.00;101549.66;5344200;27;20400;-75
2022/04/20 05:17:07;;;;;;;7.53;5.55;;;;;;;5.56;100.00;101550.25;5347894;27;20070;-75
2022/04/20 05:19:38;;;;;;;5.93;5.10;;;;;;;5.75;100.00;101552.63;5347219;27;20040;-74
2022/04/20 05:22:09;;;;;;;9.30;4.78;;;;;;;6.04;100.00;101550.00;5345259;27;20020;-75
2022/04/20 05:24:40;;;;;;;6.13;5.53;;;;;;;6.16;100.00;101549.25;5348045;27;20028;-75
2022/04/20 05:27:13;;;;;;;7.82;4.85;;;;;;;6.42;100.00;101552.03;5355790;27;20076;-75
2022/04/20 05:29:44;;;;;;;8.63;5.18;;;;;;;6.61;100.00;101559.66;5349509;27;20508;-75
2022/04/20 05:32:16;;;;;;;6.03;4.85;;;;;;;6.76;100.00;101556.00;5350698;27;20115;-75
2022/04/20 05:34:47;;;;;;;6.22;4.97;;;;;;;7.09;100.00;101565.34;5348184;27;20031;-74
2022/04/20 05:42:59;;;;;;;7.72;4.95;;;;;;;7.70;100.00;101570.13;5344399;27;20051;-75
2022/04/20 05:45:30;;;;;;;8.05;4.90;;;;;;;8.03;100.00;101577.53;5346822;27;20082;-75
2022/04/20 05:48:03;;;;;;;6.53;4.65;;;;;;;8.28;100.00;101566.00;5342822;27;20134;-76
2022/04/20 05:50:34;;;;;;;6.32;4.63;;;;;;;8.39;100.00;101572.38;5346518;27;20109;-76
2022/04/20 05:53:05;;;;;;;5.90;4.43;;;;;;;8.74;100.00;101566.31;5343782;27;20456;-76
2022/04/20 05:55:37;;;;;;;5.95;4.55;;;;;;;8.91;100.00;101563.28;5346670;27;20139;-76
2022/04/20 05:58:08;;;;;;;6.07;4.25;;;;;;;9.27;100.00;101572.97;5348605;27;20059;-76
2022/04/20 06:00:40;;;;;;;6.50;4.57;;;;;;;9.31;100.00;101568.25;5349677;27;20058;-76
2022/04/20 06:03:11;;;;;;;6.40;4.35;;;;;;;9.65;100.00;101565.66;5359089;27;20024;-76
2022/04/20 06:05:42;;;;;;;6.07;4.15;;;;;;;9.90;100.00;101564.59;5362128;27;20039;-76
2022/04/20 06:08:14;;;;;;;7.35;4.38;;;;;;;10.08;100.00;101564.13;5361040;27;20027;-76
2022/04/20 06:10:46;;;;;;;5.70;4.50;;;;;;;10.25;100.00;101558.28;5362659;27;20027;-76
2022/04/20 06:13:17;;;;;;;6.70;4.45;;;;;;;10.63;100.00;101565.06;5354780;27;20446;-76
2022/04/20 06:15:49;;;;;;;7.25;4.28;;;;;;;10.80;100.00;101566.34;5348130;27;20023;-76
2022/04/20 06:18:20;;;;;;;7.10;4.85;;;;;;;11.13;100.00;101567.16;5348901;27;20430;-76
2022/04/20 06:20:52;;;;;;;5.50;4.82;;;;;;;11.51;99.29;101565.75;5347832;27;20051;-76
2022/04/20 06:23:23;;;;;;;6.95;4.40;;;;;;;11.67;95.11;101570.63;5348673;27;20024;-76
2022/04/20 06:25:55;;;;;;;6.72;4.57;;;;;;;11.73;92.91;101570.97;5349847;27;20019;-76
2022/04/20 06:28:27;;;;;;;6.65;4.88;;;;;;;12.12;90.91;101572.16;5370298;27;20047;-76
2022/04/20 06:30:58;;;;;;;6.72;4.97;;;;;;;12.41;87.83;101573.13;5370585;27;20481;-76
2022/04/20 06:33:29;;;;;;;6.05;4.40;;;;;;;12.54;82.52;101578.22;5370399;27;20018;-76
2022/04/20 06:36:01;;;;;;;7.32;5.05;;;;;;;13.02;81.83;101581.94;5348743;27;20042;-76
2022/04/20 06:38:32;;;;;;;13.05;5.10;;;;;;;12.91;78.68;101579.41;5347760;27;20020;-76
2022/04/20 06:41:03;;;;;;;8.60;5.05;;;;;;;13.27;79.84;101585.03;5348435;27;20028;-76
2022/04/20 06:43:35;;;;;;;10.30;4.88;;;;;;;14.05;76.17;101575.00;5348660;27;20092;-76
2022/04/20 06:46:07;;;;;;;6.70;4.45;;;;;;;13.84;69.55;101579.75;5365060;27;20027;-76
2022/04/20 06:48:38;;;;;;;7.40;4.85;;;;;;;14.29;68.42;101573.66;5369309;27;20046;-76
2022/04/20 06:51:09;;;;;;;8.75;4.85;;;;;;;14.83;65.26;101581.81;5369918;27;20421;-76
2022/04/20 06:59:20;;;;;;;7.28;4.30;;;;;;;16.15;57.99;101576.44;5369936;27;20031;-76
2022/04/20 07:01:51;;;;;;;7.18;4.47;;;;;;;16.32;58.90;101576.50;5369619;27;20426;-76
2022/04/20 07:04:23;;;;;;;5.03;4.45;;;;;;;16.91;52.80;101579.22;5369526;27;20031;-74
2022/04/20 07:06:54;;;;;;;5.97;4.50;;;;;;;16.84;50.25;101581.72;5369257;27;20023;-75
2022/04/20 07:09:25;;;;;;;6.82;3.72;;;;;;;17.35;52.62;101574.34;5367216;27;33286;-76
2022/04/20 07:11:56;;;;;;;10.00;4.28;;;;;;;17.23;49.63;101581.09;5348358;27;20106;-75
2022/04/20 07:14:28;;;;;;;7.28;4.00;;;;;;;18.02;48.10;101575.97;5348675;27;20024;-76
2022/04/20 07:17:00;;;;;;;4.35;3.75;;;;;;;17.94;45.64;101575.97;5346743;27;20438;-75
2022/04/20 07:19:32;;;;;;;6.65;3.90;;;;;;;18.04;45.52;101571.22;5347553;27;20110;-75
2022/04/20 07:22:03;;;;;;;5.45;3.85;;;;;;;18.98;44.31;101571.25;5346239;27;20126;-75
2022/04/20 07:24:35;;;;;;;5.50;4.03;;;;;;;19.07;43.77;101570.19;5351921;27;20023;-75
2022/04/20 07:27:06;;;;;;;8.30;3.92;;;;;;;19.86;40.24;101573.53;5369552;27;20035;-75
2022/04/20 07:29:37;;;;;;;6.10;3.80;;;;;;;20.29;40.25;101579.97;5367941;27;20034;-75
2022/04/20 07:32:09;;;;;;;4.95;3.70;;;;;;;20.40;40.09;101571.31;5369662;27;20015;-75
2022/04/20 07:34:40;;;;;;;5.70;3.35;;;;;;;21.05;38.71;101573.31;5368031;27;20482;-75
2022/04/20 07:37:12;;;;;;;7.57;3.70;;;;;;;21.18;36.74;101581.59;5355146;27;20016;-76
2022/04/20 07:39:43;;;;;;;6.93;3.60;;;;;;;21.40;35.46;101578.84;5347744;27;20035;-75
2022/04/20 07:42:15;;;;;;;8.70;3.83;;;;;;;21.51;36.47;101592.75;5347603;27;20027;-75
2022/04/20 07:44:46;;;;;;;7.05;3.60;;;;;;;22.12;34.52;101580.38;5353704;27;20026;-75
2022/04/20 07:47:17;;;;;;;4.53;3.90;;;;;;;22.98;32.75;101571.72;5366507;27;20047;-75
2022/04/20 07:50:31;;;;;;;5.20;3.63;;;;;;;23.34;32.02;101584.13;5369333;27;20349;-75
2022/04/20 07:52:48;;;;;;;5.38;3.38;;;;;;;23.81;30.22;101583.25;5358335;27;20134;-76
2022/04/20 07:55:24;;;;;;;4.90;3.08;;;;;;;24.35;31.02;101585.63;5367234;27;20184;-76
2022/04/20 07:57:57;;;;;;;6.00;3.10;;;;;;;24.97;28.96;101587.81;5368816;27;20019;-76
2022/04/20 08:00:29;;;;;;;4.10;3.38;;;;;;;24.86;28.29;101589.38;5362061;27;20081;-76
2022/04/20 08:03:17;;;;;;;6.32;3.53;;;;;;;25.21;29.82;101588.91;5368776;27;20019;-76
2022/04/20 08:05:52;;;;;;;5.47;3.35;;;;;;;25.12;28.23;101592.13;5368538;27;20035;-76
2022/04/20 08:08:24;;;;;;;5.85;3.03;;;;;;;25.94;27.09;101584.69;5368111;27;20019;-76
2022/04/20 08:10:56;;;;;;;5.72;3.05;;;;;;;25.87;26.79;101588.56;5368785;27;20034;-76
2022/04/20 08:16:17;;;;;;;6.90;3.30;;;;;;;26.57;24.89;101594.44;5347196;27;20495;-76
2022/04/20 08:18:48;;;;;;;5.13;3.25;;;;;;;26.38;24.94;101596.38;5346643;27;20050;-76
2022/04/20 08:21:20;;;;;;;5.23;3.47;;;;;;;26.98;24.53;101592.84;5346644;27;20027;-76
2022/04/20 08:23:51;;;;;;;4.75;3.10;;;;;;;27.87;24.01;101599.38;5347254;27;20246;-76
2022/04/20 08:26:22;;;;;;;6.77;3.27;;;;;;;27.77;23.41;101590.91;5345670;27;33813;-77
2022/04/20 08:28:54;;;;;;;12.23;3.53;;;;;;;27.47;23.43;101591.88;5365158;27;20276;-77
2022/04/20 08:31:25;;;;;;;9.77;3.38;;;;;;;27.29;24.29;101598.28;5368633;27;20016;-76
2022/04/20 08:33:56;;;;;;;6.67;3.13;;;;;;;27.93;22.77;101595.72;5369032;27;20034;-76
2022/04/20 08:36:28;;;;;;;5.07;2.90;;;;;;;28.62;22.49;101597.69;5366421;27;39590;-76
2022/04/20 08:39:00;;;;;;;6.88;3.50;;;;;;;29.28;22.06;101606.31;5364677;27;20269;-76
2022/04/20 08:41:31;;;;;;;6.63;3.80;;;;;;;29.66;20.88;101593.69;5347690;27;20473;-76
2022/04/20 08:44:04;;;;;;;5.05;3.05;;;;;;;29.21;21.13;101595.50;5367896;27;20087;-77
2022/04/20 08:46:40;;;;;;;9.02;3.85;;;;;;;30.54;21.01;101588.31;5346345;27;20051;-77
2022/04/20 08:49:11;;;;;;;6.60;3.40;;;;;;;29.15;21.18;101585.50;5346409;27;20046;-77
2022/04/20 08:54:33;;;;;;;8.32;3.47;;;;;;;30.44;19.73;101590.13;5368430;27;20433;-76
2022/04/20 08:57:15;;;;;;;6.05;3.35;;;;;;;29.99;20.21;101589.25;5368385;27;20027;-77
2022/04/20 08:59:51;;;;;;;4.10;3.22;;;;;;;30.53;19.37;101583.06;5368060;27;20172;-77
2022/04/20 09:02:25;;;;;;;6.97;3.60;;;;;;;30.57;19.55;101577.84;5367787;27;20030;-75
2022/04/20 09:04:57;;;;;;;7.32;3.70;;;;;;;30.38;19.32;101585.63;5367855;27;20504;-77
2022/04/20 09:07:31;;;;;;;6.22;3.53;;;;;;;31.88;18.00;101583.91;5367022;27;20027;-76
2022/04/20 09:10:02;;;;;;;5.25;3.70;;;;;;;32.34;17.46;101584.09;5367799;27;20445;-77
2022/04/20 09:12:39;;;;;;;8.48;3.67;;;;;;;31.29;19.11;101574.69;5366354;27;20046;-76
2022/04/20 09:15:15;;;;;;;4.10;3.40;;;;;;;32.18;17.91;101579.66;5366415;27;20027;-76
2022/04/20 09:17:47;;;;;;;4.97;3.28;;;;;;;32.63;17.03;101577.28;5366446;27;20022;-76
2022/04/20 09:20:19;;;;;;;5.55;3.58;;;;;;;32.11;18.33;101579.06;5346510;27;20130;-77
2022/04/20 09:23:13;;;;;;;11.75;3.70;;;;;;;34.05;17.66;101574.72;5345777;27;20031;-76
2022/04/20 09:25:49;;;;;;;5.93;3.47;;;;;;;34.33;16.50;101584.28;5345377;27;20066;-76
2022/04/20 09:28:22;;;;;;;4.80;3.53;;;;;;;34.27;16.08;101579.88;5343896;27;20020;-76
2022/04/20 09:30:55;;;;;;;6.55;3.53;;;;;;;34.60;15.90;101583.84;5347004;27;20016;-76
2022/04/20 09:33:49;;;;;;;3.92;3.22;;;;;;;35.24;16.05;101561.78;5358221;27;20500;-77
2022/04/20 09:36:42;;;;;;;4.43;3.45;;;;;;;35.76;16.04;101557.34;5371248;27;20031;-77
2022/04/20 09:39:14;;;;;;;4.93;3.03;;;;;;;34.31;15.35;101558.84;5371177;27;20462;-77
2022/04/20 09:41:59;;;;;;;7.20;2.78;;;;;;;34.05;15.91;101561.69;5371310;27;20477;-76
2022/04/20 09:44:30;;;;;;;3.67;3.22;;;;;;;34.27;15.81;101553.00;5365372;27;20055;-77
2022/04/20 09:49:56;;;;;;;2.90;2.60;;;;;;;35.34;15.19;101546.97;5349809;27;20325;-77
2022/04/20 09:52:39;;;;;;;4.10;2.75;;;;;;;36.02;15.07;101564.53;5348886;27;20034;-76
2022/04/20 09:55:15;;;;;;;7.18;2.88;;;;;;;36.28;14.94;101559.50;5349045;27;20110;-77
2022/04/20 09:57:47;;;;;;;3.58;3.20;;;;;;;34.75;15.79;101552.47;5346793;27;20156;-76
2022/04/20 10:00:20;;;;;;;7.50;2.97;;;;;;;36.23;14.42;101545.69;5365453;27;20107;-76
2022/04/20 10:02:53;;;;;;;4.15;2.70;;;;;;;36.07;14.58;101548.63;5349185;27;20055;-77
2022/04/20 10:05:24;;;;;;;4.43;2.65;;;;;;;36.13;14.23;101538.28;5349509;27;20019;-77
2022/04/20 10:07:59;;;;;;;5.65;2.70;;;;;;;36.02;14.05;101539.56;5348947;27;20071;-77
2022/04/20 10:10:32;;;;;;;5.55;2.50;;;;;;;34.89;14.58;101540.72;5347018;27;20026;-77
2022/04/20 10:13:04;;;;;;;3.10;2.13;;;;;;;35.03;14.32;101531.44;5368859;27;20437;-77
2022/04/20 10:16:19;;;;;;;4.07;2.38;;;;;;;34.55;14.85;101535.97;5371134;27;20030;-77
2022/04/20 10:18:33;;;;;;;5.30;2.50;;;;;;;35.73;14.79;101530.22;5364320;27;20023;-76
2022/04/20 10:21:07;;;;;;;2.95;2.30;;;;;;;35.30;14.70;101532.06;5369044;27;20037;-77
2022/04/20 10:23:43;;;;;;;5.28;2.75;;;;;;;34.71;14.64;101509.81;5364153;27;20546;-77
2022/04/20 10:26:17;;;;;;;6.60;2.63;;;;;;;36.18;14.25;101521.56;5348324;27;20024;-77
2022/04/20 10:28:48;;;;;;;4.95;1.95;;;;;;;36.08;14.08;101516.16;5348661;27;20393;-77
2022/04/20 10:31:26;;;;;;;4.43;2.33;;;;;;;34.99;14.49;101526.78;5348391;27;20022;-76
2022/04/20 10:33:59;;;;;;;4.20;2.33;;;;;;;33.86;15.06;101520.00;5346370;27;41199;-76
2022/04/20 10:36:32;;;;;;;6.55;1.95;;;;;;;34.96;15.14;101513.50;5347110;27;20027;-76
2022/04/20 10:39:24;;;;;;;6.15;2.47;;;;;;;35.06;14.83;101515.34;5357435;27;20027;-76
2022/04/20 10:42:16;;;;;;;2.90;1.95;;;;;;;35.77;15.16;101517.38;5345706;27;20382;-77
2022/04/20 10:45:05;;;;;;;3.35;1.70;;;;;;;36.42;14.07;101512.38;5354972;27;20027;-76
2022/04/20 10:47:42;;;;;;;4.20;1.83;;;;;;;34.63;14.48;101507.66;5368126;27;20039;-76
2022/04/20 10:50:21;;;;;;;3.10;1.70;;;;;;;34.91;15.33;101514.38;5370277;27;20019;-76
2022/04/20 10:53:05;;;;;;;2.13;1.90;;;;;;;35.65;14.27;101511.41;5368784;27;20027;-76
2022/04/20 10:55:36;;;;;;;2.63;1.92;;;;;;;34.78;14.42;101507.53;5370206;27;20039;-76
2022/04/20 10:58:18;;;;;;;4.20;2.00;;;;;;;35.61;14.62;101502.03;5368973;27;20019;-76
2022/04/20 11:01:09;;;;;;;3.47;1.90;;;;;;;36.95;13.72;101497.34;5369451;27;20394;-76
2022/04/20 11:04:02;;;;;;;3.85;1.90;;;;;;;37.36;13.71;101491.84;5349672;27;20073;-76
2022/04/20 11:07:04;;;;;;;3.30;1.83;;;;;;;38.25;14.18;101498.03;5347648;27;20106;-76
2022/04/20 11:09:52;;;;;;;2.30;2.10;;;;;;;36.04;14.47;101482.59;5333582;27;20051;-76
2022/04/20 11:18:38;;;;;;;1.83;1.58;;;;;;;36.78;13.33;101484.00;5368896;27;20038;-77
2022/04/20 11:21:11;;;;;;;3.85;1.90;;;;;;;36.85;13.74;101476.94;5368562;27;20034;-76
2022/04/20 11:24:08;;;;;;;3.45;1.80;;;;;;;38.58;13.37;101475.53;5350068;27;20054;-77
2022/04/20 11:26:41;;;;;;;2.70;1.83;;;;;;;37.59;13.38;101472.44;5347617;27;20091;-77
2022/04/20 11:29:22;;;;;;;2.95;1.60;;;;;;;37.78;14.09;101469.56;5347813;27;20015;-77
2022/04/20 11:32:02;;;;;;;8.35;2.20;;;;;;;37.00;13.65;101456.38;5347348;27;20040;-77
2022/04/20 11:34:36;;;;;;;3.13;1.60;;;;;;;36.72;13.35;101461.06;5346891;27;20016;-77
2022/04/20 11:37:07;;;;;;;2.47;1.40;;;;;;;36.42;14.06;101454.84;5355010;27;20026;-77
2022/04/20 11:39:38;;;;;;;3.38;1.60;;;;;;;36.46;13.71;101453.13;5369227;27;20468;-77
2022/04/20 11:42:10;;;;;;;5.82;1.60;;;;;;;37.19;13.25;101452.72;5369570;27;20058;-77
2022/04/20 11:44:41;;;;;;;2.85;1.67;;;;;;;36.99;13.26;101449.13;5367079;27;20157;-76
2022/04/20 11:47:16;;;;;;;2.45;1.40;;;;;;;37.34;13.51;101448.78;5356359;27;20050;-77
2022/04/20 11:49:49;;;;;;;4.70;1.70;;;;;;;37.51;13.11;101439.81;5349973;27;20023;-77
2022/04/20 11:52:21;;;;;;;3.88;1.75;;;;;;;37.32;13.03;101434.38;5346838;27;20016;-77
2022/04/20 11:54:52;;;;;;;5.25;2.13;;;;;;;36.72;13.61;101442.41;5346994;27;20031;-76
2022/04/20 11:57:23;;;;;;;3.65;1.95;;;;;;;36.19;14.11;101433.53;5347472;27;20015;-76
2022/04/20 11:59:58;;;;;;;3.45;2.00;;;;;;;35.74;15.37;101436.69;5347719;27;20304;-76
2022/04/20 12:02:30;;;;;;;4.40;2.00;;;;;;;36.86;13.66;101430.50;5345046;27;20114;-76
2022/04/20 12:05:08;;;;;;;2.05;1.85;;;;;;;36.63;14.24;101429.50;5347115;27;20096;-76
2022/04/20 12:07:39;;;;;;;6.05;2.60;;;;;;;34.79;14.74;101417.78;5344386;27;20024;-76
2022/04/20 12:10:11;;;;;;;2.92;2.10;;;;;;;33.69;14.95;101426.28;5347115;27;20022;-76
2022/04/20 12:12:42;;;;;;;7.65;2.35;;;;;;;35.04;14.59;101421.41;5346886;27;20126;-76
2022/04/20 12:15:14;;;;;;;4.35;2.20;;;;;;;35.11;14.98;101419.09;5345172;27;20030;-77
2022/04/20 12:17:46;;;;;;;3.13;1.92;;;;;;;34.87;15.04;101410.78;5364403;27;20026;-76
2022/04/20 12:20:17;;;;;;;2.85;2.00;;;;;;;34.67;15.01;101409.00;5367035;27;20031;-76
2022/04/20 12:22:48;;;;;;;3.00;2.00;;;;;;;35.53;14.90;101417.50;5367568;27;20020;-76